sensor_id;sensor_type;location;lat;lon;timestamp;P1;durP1;ratioP1;P2;durP2;ratioP2
22030;SDS011;11179;52.106;21.024;2023-04-25T00:00:27;20.50;;;13.23;;
22030;SDS011;11179;52.106;21.024;2023-04-25T00:02:53;25.90;;;13.90;;
22030;SDS011;11179;52.106;21.024;2023-04-25T00:05:18;28.97;;;14.33;;
22030;SDS011;11179;52.106;21.024;2023-04-25T00:07:44;22.60;;;13.03;;
22030;SDS011;11179;52.106;21.024;2023-04-25T00:10:11;23.13;;;13.23;;
22030;SDS011;11179;52.106;21.024;2023-04-25T00:12:36;22.60;;;12.73;;
22030;SDS011;11179;52.106;21.024;2023-04-25T00:15:02;24.03;;;15.10;;
22030;SDS011;11179;52.106;21.024;2023-04-25T00:17:28;23.53;;;14.87;;
22030;SDS011;11179;52.106;21.024;2023-04-25T00:19:54;22.83;;;14.43;;
22030;SDS011;11179;52.106;21.024;2023-04-25T00:22:20;21.47;;;13.80;;
22030;SDS011;11179;52.106;21.024;2023-04-25T00:24:46;27.20;;;14.20;;
22030;SDS011;11179;52.106;21.024;2023-04-25T00:27:11;24.70;;;13.50;;
22030;SDS011;11179;52.106;21.024;2023-04-25T00:29:36;23.43;;;14.13;;
22030;SDS011;11179;52.106;21.024;2023-04-25T00:32:02;21.33;;;11.60;;
22030;SDS011;11179;52.106;21.024;2023-04-25T00:34:27;28.50;;;15.60;;
22030;SDS011;11179;52.106;21.024;2023-04-25T00:36:52;21.60;;;13.27;;
22030;SDS011;11179;52.106;21.024;2023-04-25T00:39:18;22.60;;;14.97;;
22030;SDS011;11179;52.106;21.024;2023-04-25T00:41:44;23.60;;;14.90;;
22030;SDS011;11179;52.106;21.024;2023-04-25T00:44:10;19.60;;;12.60;;
22030;SDS011;11179;52.106;21.024;2023-04-25T00:46:36;23.57;;;15.33;;
22030;SDS011;11179;52.106;21.024;2023-04-25T00:49:03;26.83;;;14.90;;
22030;SDS011;11179;52.106;21.024;2023-04-25T00:51:29;25.00;;;14.53;;
22030;SDS011;11179;52.106;21.024;2023-04-25T00:53:55;24.83;;;14.10;;
22030;SDS011;11179;52.106;21.024;2023-04-25T00:56:21;25.47;;;15.27;;
22030;SDS011;11179;52.106;21.024;2023-04-25T00:58:46;27.23;;;14.60;;
22030;SDS011;11179;52.106;21.024;2023-04-25T01:01:13;29.63;;;15.93;;
22030;SDS011;11179;52.106;21.024;2023-04-25T01:03:39;27.60;;;14.83;;
22030;SDS011;11179;52.106;21.024;2023-04-25T01:06:09;26.53;;;16.17;;
22030;SDS011;11179;52.106;21.024;2023-04-25T01:08:36;26.63;;;15.40;;
22030;SDS011;11179;52.106;21.024;2023-04-25T01:11:02;30.80;;;15.90;;
22030;SDS011;11179;52.106;21.024;2023-04-25T01:13:28;25.40;;;15.40;;
22030;SDS011;11179;52.106;21.024;2023-04-25T01:15:54;23.47;;;14.30;;
22030;SDS011;11179;52.106;21.024;2023-04-25T01:18:19;23.50;;;14.50;;
22030;SDS011;11179;52.106;21.024;2023-04-25T01:20:45;26.63;;;15.40;;
22030;SDS011;11179;52.106;21.024;2023-04-25T01:23:11;25.13;;;16.43;;
22030;SDS011;11179;52.106;21.024;2023-04-25T01:25:37;26.53;;;15.27;;
22030;SDS011;11179;52.106;21.024;2023-04-25T01:28:03;34.17;;;16.17;;
22030;SDS011;11179;52.106;21.024;2023-04-25T01:30:29;31.10;;;16.40;;
22030;SDS011;11179;52.106;21.024;2023-04-25T01:32:55;31.77;;;15.97;;
22030;SDS011;11179;52.106;21.024;2023-04-25T01:35:22;24.60;;;15.83;;
22030;SDS011;11179;52.106;21.024;2023-04-25T01:37:49;25.27;;;15.40;;
22030;SDS011;11179;52.106;21.024;2023-04-25T01:40:14;24.57;;;15.13;;
22030;SDS011;11179;52.106;21.024;2023-04-25T01:42:42;23.00;;;14.80;;
22030;SDS011;11179;52.106;21.024;2023-04-25T01:45:08;26.97;;;16.03;;
22030;SDS011;11179;52.106;21.024;2023-04-25T01:47:35;29.57;;;15.73;;
22030;SDS011;11179;52.106;21.024;2023-04-25T01:50:02;25.60;;;15.50;;
22030;SDS011;11179;52.106;21.024;2023-04-25T01:52:29;21.77;;;13.73;;
22030;SDS011;11179;52.106;21.024;2023-04-25T01:54:55;27.90;;;16.10;;
22030;SDS011;11179;52.106;21.024;2023-04-25T01:57:22;24.27;;;15.10;;
22030;SDS011;11179;52.106;21.024;2023-04-25T01:59:47;27.17;;;15.97;;
22030;SDS011;11179;52.106;21.024;2023-04-25T02:02:12;24.70;;;13.40;;
22030;SDS011;11179;52.106;21.024;2023-04-25T02:04:38;26.60;;;14.20;;
22030;SDS011;11179;52.106;21.024;2023-04-25T02:07:03;24.07;;;14.67;;
22030;SDS011;11179;52.106;21.024;2023-04-25T02:09:29;25.33;;;14.47;;
22030;SDS011;11179;52.106;21.024;2023-04-25T02:11:54;27.73;;;14.70;;
22030;SDS011;11179;52.106;21.024;2023-04-25T02:14:19;25.17;;;15.67;;
22030;SDS011;11179;52.106;21.024;2023-04-25T02:16:45;26.67;;;14.23;;
22030;SDS011;11179;52.106;21.024;2023-04-25T02:19:11;24.40;;;14.33;;
22030;SDS011;11179;52.106;21.024;2023-04-25T02:21:37;23.53;;;14.67;;
22030;SDS011;11179;52.106;21.024;2023-04-25T02:24:02;25.40;;;14.27;;
22030;SDS011;11179;52.106;21.024;2023-04-25T02:26:28;21.80;;;13.03;;
22030;SDS011;11179;52.106;21.024;2023-04-25T02:28:54;23.20;;;13.83;;
22030;SDS011;11179;52.106;21.024;2023-04-25T02:31:21;23.30;;;13.03;;
22030;SDS011;11179;52.106;21.024;2023-04-25T02:33:46;19.83;;;12.53;;
22030;SDS011;11179;52.106;21.024;2023-04-25T02:36:12;18.57;;;11.50;;
22030;SDS011;11179;52.106;21.024;2023-04-25T02:38:37;22.10;;;12.57;;
22030;SDS011;11179;52.106;21.024;2023-04-25T02:41:03;20.93;;;10.90;;
22030;SDS011;11179;52.106;21.024;2023-04-25T02:43:28;24.70;;;11.67;;
22030;SDS011;11179;52.106;21.024;2023-04-25T02:45:53;19.20;;;10.40;;
22030;SDS011;11179;52.106;21.024;2023-04-25T02:48:19;19.43;;;10.90;;
22030;SDS011;11179;52.106;21.024;2023-04-25T02:50:44;19.10;;;10.30;;
22030;SDS011;11179;52.106;21.024;2023-04-25T02:53:10;15.67;;;9.40;;
22030;SDS011;11179;52.106;21.024;2023-04-25T02:55:35;17.40;;;10.00;;
22030;SDS011;11179;52.106;21.024;2023-04-25T02:58:01;20.33;;;9.80;;
22030;SDS011;11179;52.106;21.024;2023-04-25T03:00:26;18.80;;;10.57;;
22030;SDS011;11179;52.106;21.024;2023-04-25T03:02:51;16.47;;;8.77;;
22030;SDS011;11179;52.106;21.024;2023-04-25T03:05:16;18.63;;;10.00;;
22030;SDS011;11179;52.106;21.024;2023-04-25T03:07:42;16.87;;;9.23;;
22030;SDS011;11179;52.106;21.024;2023-04-25T03:10:09;20.10;;;10.30;;
22030;SDS011;11179;52.106;21.024;2023-04-25T03:12:35;17.60;;;9.70;;
22030;SDS011;11179;52.106;21.024;2023-04-25T03:15:00;18.40;;;9.87;;
22030;SDS011;11179;52.106;21.024;2023-04-25T03:17:25;18.53;;;9.77;;
22030;SDS011;11179;52.106;21.024;2023-04-25T03:19:51;20.47;;;10.17;;
22030;SDS011;11179;52.106;21.024;2023-04-25T03:22:16;20.90;;;9.90;;
22030;SDS011;11179;52.106;21.024;2023-04-25T03:24:41;15.20;;;8.93;;
22030;SDS011;11179;52.106;21.024;2023-04-25T03:27:07;15.93;;;9.73;;
22030;SDS011;11179;52.106;21.024;2023-04-25T03:29:32;19.00;;;9.83;;
22030;SDS011;11179;52.106;21.024;2023-04-25T03:31:57;16.83;;;9.70;;
22030;SDS011;11179;52.106;21.024;2023-04-25T03:34:23;16.90;;;9.23;;
22030;SDS011;11179;52.106;21.024;2023-04-25T03:36:49;15.97;;;8.77;;
22030;SDS011;11179;52.106;21.024;2023-04-25T03:39:14;16.80;;;8.90;;
22030;SDS011;11179;52.106;21.024;2023-04-25T03:41:39;20.33;;;8.80;;
22030;SDS011;11179;52.106;21.024;2023-04-25T03:44:05;20.37;;;7.93;;
22030;SDS011;11179;52.106;21.024;2023-04-25T03:46:30;14.43;;;8.33;;
22030;SDS011;11179;52.106;21.024;2023-04-25T03:48:55;12.57;;;7.40;;
22030;SDS011;11179;52.106;21.024;2023-04-25T03:51:21;14.70;;;7.23;;
22030;SDS011;11179;52.106;21.024;2023-04-25T03:53:47;13.37;;;7.70;;
22030;SDS011;11179;52.106;21.024;2023-04-25T03:56:13;15.13;;;7.73;;
22030;SDS011;11179;52.106;21.024;2023-04-25T03:58:38;11.87;;;7.40;;
22030;SDS011;11179;52.106;21.024;2023-04-25T04:01:03;12.30;;;6.80;;
22030;SDS011;11179;52.106;21.024;2023-04-25T04:03:32;12.20;;;6.93;;
22030;SDS011;11179;52.106;21.024;2023-04-25T04:05:59;11.20;;;6.70;;
22030;SDS011;11179;52.106;21.024;2023-04-25T04:08:24;23.27;;;7.43;;
22030;SDS011;11179;52.106;21.024;2023-04-25T04:10:50;13.40;;;7.80;;
22030;SDS011;11179;52.106;21.024;2023-04-25T04:13:15;16.73;;;6.53;;
22030;SDS011;11179;52.106;21.024;2023-04-25T04:15:40;11.77;;;6.50;;
22030;SDS011;11179;52.106;21.024;2023-04-25T04:18:06;11.90;;;6.60;;
22030;SDS011;11179;52.106;21.024;2023-04-25T04:20:31;12.87;;;6.93;;
22030;SDS011;11179;52.106;21.024;2023-04-25T04:22:57;10.57;;;6.37;;
22030;SDS011;11179;52.106;21.024;2023-04-25T04:25:22;12.23;;;6.67;;
22030;SDS011;11179;52.106;21.024;2023-04-25T04:27:47;13.93;;;7.10;;
22030;SDS011;11179;52.106;21.024;2023-04-25T04:30:13;14.73;;;7.97;;
22030;SDS011;11179;52.106;21.024;2023-04-25T04:32:38;10.40;;;6.53;;
22030;SDS011;11179;52.106;21.024;2023-04-25T04:35:04;12.13;;;7.40;;
22030;SDS011;11179;52.106;21.024;2023-04-25T04:37:31;12.63;;;7.80;;
22030;SDS011;11179;52.106;21.024;2023-04-25T04:39:57;14.10;;;7.37;;
22030;SDS011;11179;52.106;21.024;2023-04-25T04:42:22;12.57;;;7.33;;
22030;SDS011;11179;52.106;21.024;2023-04-25T04:44:49;13.67;;;7.87;;
22030;SDS011;11179;52.106;21.024;2023-04-25T04:47:15;20.23;;;8.10;;
22030;SDS011;11179;52.106;21.024;2023-04-25T04:49:40;13.50;;;8.00;;
22030;SDS011;11179;52.106;21.024;2023-04-25T04:52:05;12.70;;;7.27;;
22030;SDS011;11179;52.106;21.024;2023-04-25T04:54:31;17.00;;;8.00;;
22030;SDS011;11179;52.106;21.024;2023-04-25T04:56:56;13.40;;;7.43;;
22030;SDS011;11179;52.106;21.024;2023-04-25T04:59:21;13.43;;;8.20;;
22030;SDS011;11179;52.106;21.024;2023-04-25T05:01:47;13.50;;;8.30;;
22030;SDS011;11179;52.106;21.024;2023-04-25T05:04:12;13.53;;;8.10;;
22030;SDS011;11179;52.106;21.024;2023-04-25T05:06:37;15.70;;;8.40;;
22030;SDS011;11179;52.106;21.024;2023-04-25T05:09:03;22.93;;;9.53;;
22030;SDS011;11179;52.106;21.024;2023-04-25T05:11:28;20.73;;;9.00;;
22030;SDS011;11179;52.106;21.024;2023-04-25T05:13:54;17.10;;;8.50;;
22030;SDS011;11179;52.106;21.024;2023-04-25T05:16:20;13.43;;;8.57;;
22030;SDS011;11179;52.106;21.024;2023-04-25T05:18:45;13.23;;;8.20;;
22030;SDS011;11179;52.106;21.024;2023-04-25T05:21:11;14.70;;;8.30;;
22030;SDS011;11179;52.106;21.024;2023-04-25T05:23:36;19.87;;;9.20;;
22030;SDS011;11179;52.106;21.024;2023-04-25T05:26:02;14.87;;;8.77;;
22030;SDS011;11179;52.106;21.024;2023-04-25T05:28:27;20.17;;;9.83;;
22030;SDS011;11179;52.106;21.024;2023-04-25T05:30:52;17.10;;;9.60;;
22030;SDS011;11179;52.106;21.024;2023-04-25T05:33:18;15.77;;;9.23;;
22030;SDS011;11179;52.106;21.024;2023-04-25T05:35:43;13.17;;;8.33;;
22030;SDS011;11179;52.106;21.024;2023-04-25T05:38:09;14.30;;;8.83;;
22030;SDS011;11179;52.106;21.024;2023-04-25T05:40:35;14.17;;;8.70;;
22030;SDS011;11179;52.106;21.024;2023-04-25T05:43:00;14.30;;;8.47;;
22030;SDS011;11179;52.106;21.024;2023-04-25T05:45:25;17.53;;;8.80;;
22030;SDS011;11179;52.106;21.024;2023-04-25T05:47:51;12.70;;;8.20;;
22030;SDS011;11179;52.106;21.024;2023-04-25T05:50:16;18.17;;;9.93;;
22030;SDS011;11179;52.106;21.024;2023-04-25T05:52:41;16.80;;;9.60;;
22030;SDS011;11179;52.106;21.024;2023-04-25T05:55:07;16.70;;;8.80;;
22030;SDS011;11179;52.106;21.024;2023-04-25T05:57:33;18.00;;;10.10;;
22030;SDS011;11179;52.106;21.024;2023-04-25T05:59:58;14.57;;;9.67;;
22030;SDS011;11179;52.106;21.024;2023-04-25T06:02:23;15.67;;;9.50;;
22030;SDS011;11179;52.106;21.024;2023-04-25T06:04:49;18.57;;;9.43;;
22030;SDS011;11179;52.106;21.024;2023-04-25T06:07:15;17.80;;;9.63;;
22030;SDS011;11179;52.106;21.024;2023-04-25T06:09:41;14.30;;;8.87;;
22030;SDS011;11179;52.106;21.024;2023-04-25T06:12:06;16.33;;;9.77;;
22030;SDS011;11179;52.106;21.024;2023-04-25T06:14:32;15.60;;;9.07;;
22030;SDS011;11179;52.106;21.024;2023-04-25T06:16:58;15.67;;;9.27;;
22030;SDS011;11179;52.106;21.024;2023-04-25T06:19:23;15.47;;;9.60;;
22030;SDS011;11179;52.106;21.024;2023-04-25T06:21:49;14.10;;;9.00;;
22030;SDS011;11179;52.106;21.024;2023-04-25T06:24:14;17.23;;;10.10;;
22030;SDS011;11179;52.106;21.024;2023-04-25T06:26:39;15.30;;;8.93;;
22030;SDS011;11179;52.106;21.024;2023-04-25T06:29:05;16.83;;;9.90;;
22030;SDS011;11179;52.106;21.024;2023-04-25T06:31:30;17.43;;;9.80;;
22030;SDS011;11179;52.106;21.024;2023-04-25T06:33:57;14.57;;;8.63;;
22030;SDS011;11179;52.106;21.024;2023-04-25T06:36:23;17.53;;;8.50;;
22030;SDS011;11179;52.106;21.024;2023-04-25T06:38:53;13.47;;;8.50;;
22030;SDS011;11179;52.106;21.024;2023-04-25T06:41:19;17.50;;;8.50;;
22030;SDS011;11179;52.106;21.024;2023-04-25T06:43:44;14.20;;;7.90;;
22030;SDS011;11179;52.106;21.024;2023-04-25T06:46:10;15.13;;;8.43;;
22030;SDS011;11179;52.106;21.024;2023-04-25T06:48:35;15.00;;;8.17;;
22030;SDS011;11179;52.106;21.024;2023-04-25T06:51:01;15.30;;;8.07;;
22030;SDS011;11179;52.106;21.024;2023-04-25T06:53:26;14.73;;;8.07;;
22030;SDS011;11179;52.106;21.024;2023-04-25T06:55:51;11.87;;;6.97;;
22030;SDS011;11179;52.106;21.024;2023-04-25T06:58:17;16.57;;;7.50;;
22030;SDS011;11179;52.106;21.024;2023-04-25T07:00:42;14.90;;;7.53;;
22030;SDS011;11179;52.106;21.024;2023-04-25T07:03:08;14.73;;;7.47;;
22030;SDS011;11179;52.106;21.024;2023-04-25T07:05:33;11.40;;;6.90;;
22030;SDS011;11179;52.106;21.024;2023-04-25T07:07:58;13.00;;;7.30;;
22030;SDS011;11179;52.106;21.024;2023-04-25T07:10:25;12.87;;;7.77;;
22030;SDS011;11179;52.106;21.024;2023-04-25T07:12:50;14.37;;;7.60;;
22030;SDS011;11179;52.106;21.024;2023-04-25T07:15:16;11.13;;;7.40;;
22030;SDS011;11179;52.106;21.024;2023-04-25T07:17:41;14.30;;;7.30;;
22030;SDS011;11179;52.106;21.024;2023-04-25T07:20:07;19.00;;;7.60;;
22030;SDS011;11179;52.106;21.024;2023-04-25T07:22:34;15.00;;;7.60;;
22030;SDS011;11179;52.106;21.024;2023-04-25T07:24:59;12.43;;;7.73;;
22030;SDS011;11179;52.106;21.024;2023-04-25T07:27:25;14.50;;;8.67;;
22030;SDS011;11179;52.106;21.024;2023-04-25T07:29:50;10.87;;;6.67;;
22030;SDS011;11179;52.106;21.024;2023-04-25T07:32:15;11.80;;;7.23;;
22030;SDS011;11179;52.106;21.024;2023-04-25T07:34:41;11.67;;;6.70;;
22030;SDS011;11179;52.106;21.024;2023-04-25T07:37:06;11.90;;;7.13;;
22030;SDS011;11179;52.106;21.024;2023-04-25T07:39:32;11.60;;;7.30;;
22030;SDS011;11179;52.106;21.024;2023-04-25T07:41:57;12.50;;;6.80;;
22030;SDS011;11179;52.106;21.024;2023-04-25T07:44:23;12.00;;;6.70;;
22030;SDS011;11179;52.106;21.024;2023-04-25T07:46:49;11.53;;;6.63;;
22030;SDS011;11179;52.106;21.024;2023-04-25T07:49:14;10.43;;;6.63;;
22030;SDS011;11179;52.106;21.024;2023-04-25T07:51:40;9.83;;;6.33;;
22030;SDS011;11179;52.106;21.024;2023-04-25T07:54:08;10.83;;;5.90;;
22030;SDS011;11179;52.106;21.024;2023-04-25T07:56:33;10.53;;;6.00;;
22030;SDS011;11179;52.106;21.024;2023-04-25T07:58:58;11.47;;;6.03;;
22030;SDS011;11179;52.106;21.024;2023-04-25T08:01:24;12.53;;;6.00;;
22030;SDS011;11179;52.106;21.024;2023-04-25T08:03:50;11.80;;;6.57;;
22030;SDS011;11179;52.106;21.024;2023-04-25T08:06:15;10.13;;;5.60;;
22030;SDS011;11179;52.106;21.024;2023-04-25T08:08:40;9.27;;;5.80;;
22030;SDS011;11179;52.106;21.024;2023-04-25T08:11:05;9.40;;;5.87;;
22030;SDS011;11179;52.106;21.024;2023-04-25T08:13:31;9.10;;;5.57;;
22030;SDS011;11179;52.106;21.024;2023-04-25T08:15:56;8.97;;;5.77;;
22030;SDS011;11179;52.106;21.024;2023-04-25T08:18:21;8.20;;;5.10;;
22030;SDS011;11179;52.106;21.024;2023-04-25T08:20:47;8.60;;;5.80;;
22030;SDS011;11179;52.106;21.024;2023-04-25T08:23:12;13.10;;;4.80;;
22030;SDS011;11179;52.106;21.024;2023-04-25T08:25:38;11.57;;;6.50;;
22030;SDS011;11179;52.106;21.024;2023-04-25T08:28:03;8.23;;;5.07;;
22030;SDS011;11179;52.106;21.024;2023-04-25T08:30:31;7.97;;;4.93;;
22030;SDS011;11179;52.106;21.024;2023-04-25T08:32:56;10.13;;;5.23;;
22030;SDS011;11179;52.106;21.024;2023-04-25T08:35:21;8.23;;;4.50;;
22030;SDS011;11179;52.106;21.024;2023-04-25T08:37:47;11.77;;;4.77;;
22030;SDS011;11179;52.106;21.024;2023-04-25T08:40:14;10.97;;;5.73;;
22030;SDS011;11179;52.106;21.024;2023-04-25T08:42:41;11.33;;;5.60;;
22030;SDS011;11179;52.106;21.024;2023-04-25T08:45:07;8.60;;;5.10;;
22030;SDS011;11179;52.106;21.024;2023-04-25T08:47:33;10.90;;;6.20;;
22030;SDS011;11179;52.106;21.024;2023-04-25T08:49:59;7.80;;;4.87;;
22030;SDS011;11179;52.106;21.024;2023-04-25T08:52:28;9.30;;;5.60;;
22030;SDS011;11179;52.106;21.024;2023-04-25T08:55:00;11.07;;;5.87;;
22030;SDS011;11179;52.106;21.024;2023-04-25T08:57:26;10.70;;;6.43;;
22030;SDS011;11179;52.106;21.024;2023-04-25T08:59:52;11.43;;;5.90;;
22030;SDS011;11179;52.106;21.024;2023-04-25T09:02:17;10.33;;;5.80;;
22030;SDS011;11179;52.106;21.024;2023-04-25T09:04:45;11.83;;;6.40;;
22030;SDS011;11179;52.106;21.024;2023-04-25T09:07:11;10.23;;;5.37;;
22030;SDS011;11179;52.106;21.024;2023-04-25T09:09:45;9.20;;;5.83;;
22030;SDS011;11179;52.106;21.024;2023-04-25T09:12:10;10.67;;;6.57;;
22030;SDS011;11179;52.106;21.024;2023-04-25T09:14:35;8.67;;;5.20;;
22030;SDS011;11179;52.106;21.024;2023-04-25T09:17:02;7.93;;;5.13;;
22030;SDS011;11179;52.106;21.024;2023-04-25T09:19:33;10.70;;;6.07;;
22030;SDS011;11179;52.106;21.024;2023-04-25T09:22:01;9.70;;;5.90;;
22030;SDS011;11179;52.106;21.024;2023-04-25T09:27:00;13.40;;;6.10;;
22030;SDS011;11179;52.106;21.024;2023-04-25T09:29:34;8.33;;;5.73;;
22030;SDS011;11179;52.106;21.024;2023-04-25T09:32:15;9.10;;;5.80;;
22030;SDS011;11179;52.106;21.024;2023-04-25T09:34:50;9.33;;;5.43;;
22030;SDS011;11179;52.106;21.024;2023-04-25T09:37:17;10.80;;;6.10;;
22030;SDS011;11179;52.106;21.024;2023-04-25T09:39:59;9.20;;;6.00;;
22030;SDS011;11179;52.106;21.024;2023-04-25T09:42:28;9.90;;;5.83;;
22030;SDS011;11179;52.106;21.024;2023-04-25T09:44:56;9.23;;;5.97;;
22030;SDS011;11179;52.106;21.024;2023-04-25T09:47:23;9.90;;;6.10;;
22030;SDS011;11179;52.106;21.024;2023-04-25T09:49:50;11.57;;;6.50;;
22030;SDS011;11179;52.106;21.024;2023-04-25T09:52:17;10.13;;;6.57;;
22030;SDS011;11179;52.106;21.024;2023-04-25T09:54:44;9.37;;;6.07;;
22030;SDS011;11179;52.106;21.024;2023-04-25T09:57:28;12.10;;;6.10;;
22030;SDS011;11179;52.106;21.024;2023-04-25T09:59:54;9.97;;;6.20;;
22030;SDS011;11179;52.106;21.024;2023-04-25T10:02:21;11.13;;;6.30;;
22030;SDS011;11179;52.106;21.024;2023-04-25T10:04:48;10.10;;;6.53;;
22030;SDS011;11179;52.106;21.024;2023-04-25T10:07:17;10.13;;;6.43;;
22030;SDS011;11179;52.106;21.024;2023-04-25T10:09:44;9.73;;;6.20;;
22030;SDS011;11179;52.106;21.024;2023-04-25T10:12:14;10.20;;;6.17;;
22030;SDS011;11179;52.106;21.024;2023-04-25T10:14:41;8.87;;;5.90;;
22030;SDS011;11179;52.106;21.024;2023-04-25T10:17:08;12.10;;;8.03;;
22030;SDS011;11179;52.106;21.024;2023-04-25T10:19:35;10.00;;;6.90;;
22030;SDS011;11179;52.106;21.024;2023-04-25T10:22:07;15.87;;;7.87;;
22030;SDS011;11179;52.106;21.024;2023-04-25T10:24:38;12.63;;;7.70;;
22030;SDS011;11179;52.106;21.024;2023-04-25T10:27:04;13.67;;;8.27;;
22030;SDS011;11179;52.106;21.024;2023-04-25T10:29:31;9.80;;;6.60;;
22030;SDS011;11179;52.106;21.024;2023-04-25T10:31:56;13.20;;;6.70;;
22030;SDS011;11179;52.106;21.024;2023-04-25T10:34:38;10.07;;;6.80;;
22030;SDS011;11179;52.106;21.024;2023-04-25T10:37:08;11.87;;;6.87;;
22030;SDS011;11179;52.106;21.024;2023-04-25T10:39:35;15.43;;;7.40;;
22030;SDS011;11179;52.106;21.024;2023-04-25T10:42:01;11.13;;;7.07;;
22030;SDS011;11179;52.106;21.024;2023-04-25T10:44:28;14.67;;;7.83;;
22030;SDS011;11179;52.106;21.024;2023-04-25T10:46:55;11.10;;;7.63;;
22030;SDS011;11179;52.106;21.024;2023-04-25T10:49:28;11.57;;;6.93;;
22030;SDS011;11179;52.106;21.024;2023-04-25T10:52:17;13.00;;;7.70;;
22030;SDS011;11179;52.106;21.024;2023-04-25T10:54:51;11.67;;;7.80;;
22030;SDS011;11179;52.106;21.024;2023-04-25T11:00:07;14.63;;;9.70;;
22030;SDS011;11179;52.106;21.024;2023-04-25T11:05:15;13.57;;;8.97;;
22030;SDS011;11179;52.106;21.024;2023-04-25T11:07:55;11.97;;;7.83;;
22030;SDS011;11179;52.106;21.024;2023-04-25T11:10:28;13.70;;;8.30;;
22030;SDS011;11179;52.106;21.024;2023-04-25T11:12:58;11.57;;;7.47;;
22030;SDS011;11179;52.106;21.024;2023-04-25T11:15:23;11.37;;;7.10;;
22030;SDS011;11179;52.106;21.024;2023-04-25T11:17:53;13.63;;;7.00;;
22030;SDS011;11179;52.106;21.024;2023-04-25T11:20:19;10.10;;;6.53;;
22030;SDS011;11179;52.106;21.024;2023-04-25T11:22:45;10.27;;;6.20;;
22030;SDS011;11179;52.106;21.024;2023-04-25T11:25:12;12.60;;;6.20;;
22030;SDS011;11179;52.106;21.024;2023-04-25T11:27:52;10.13;;;6.33;;
22030;SDS011;11179;52.106;21.024;2023-04-25T11:30:19;9.43;;;5.33;;
22030;SDS011;11179;52.106;21.024;2023-04-25T11:32:45;10.43;;;5.77;;
22030;SDS011;11179;52.106;21.024;2023-04-25T11:35:11;8.50;;;5.70;;
22030;SDS011;11179;52.106;21.024;2023-04-25T11:37:40;8.87;;;6.17;;
22030;SDS011;11179;52.106;21.024;2023-04-25T11:40:07;9.73;;;5.60;;
22030;SDS011;11179;52.106;21.024;2023-04-25T11:42:36;11.23;;;6.17;;
22030;SDS011;11179;52.106;21.024;2023-04-25T11:45:08;14.20;;;5.80;;
22030;SDS011;11179;52.106;21.024;2023-04-25T11:47:34;10.43;;;6.47;;
22030;SDS011;11179;52.106;21.024;2023-04-25T11:50:04;10.70;;;5.90;;
22030;SDS011;11179;52.106;21.024;2023-04-25T11:52:40;11.10;;;5.70;;
22030;SDS011;11179;52.106;21.024;2023-04-25T11:55:08;13.20;;;6.67;;
22030;SDS011;11179;52.106;21.024;2023-04-25T11:57:34;10.00;;;5.20;;
22030;SDS011;11179;52.106;21.024;2023-04-25T12:02:51;8.97;;;5.23;;
22030;SDS011;11179;52.106;21.024;2023-04-25T12:05:23;7.87;;;4.73;;
22030;SDS011;11179;52.106;21.024;2023-04-25T12:07:50;7.43;;;4.83;;
22030;SDS011;11179;52.106;21.024;2023-04-25T12:10:16;7.97;;;4.67;;
22030;SDS011;11179;52.106;21.024;2023-04-25T12:12:43;10.17;;;5.03;;
22030;SDS011;11179;52.106;21.024;2023-04-25T12:15:14;8.20;;;4.50;;
22030;SDS011;11179;52.106;21.024;2023-04-25T12:17:44;8.90;;;4.43;;
22030;SDS011;11179;52.106;21.024;2023-04-25T12:20:14;7.60;;;4.60;;
22030;SDS011;11179;52.106;21.024;2023-04-25T12:22:42;10.17;;;4.30;;
22030;SDS011;11179;52.106;21.024;2023-04-25T12:25:57;7.83;;;4.53;;
22030;SDS011;11179;52.106;21.024;2023-04-25T12:33:18;9.80;;;4.80;;
22030;SDS011;11179;52.106;21.024;2023-04-25T12:35:43;13.70;;;4.53;;
22030;SDS011;11179;52.106;21.024;2023-04-25T12:38:08;9.77;;;4.60;;
22030;SDS011;11179;52.106;21.024;2023-04-25T12:40:34;8.63;;;4.80;;
22030;SDS011;11179;52.106;21.024;2023-04-25T12:42:59;9.20;;;5.17;;
22030;SDS011;11179;52.106;21.024;2023-04-25T12:45:25;8.93;;;4.97;;
22030;SDS011;11179;52.106;21.024;2023-04-25T12:47:50;8.50;;;4.57;;
22030;SDS011;11179;52.106;21.024;2023-04-25T12:50:16;8.90;;;4.87;;
22030;SDS011;11179;52.106;21.024;2023-04-25T12:52:41;11.93;;;5.10;;
22030;SDS011;11179;52.106;21.024;2023-04-25T12:55:07;8.63;;;4.93;;
22030;SDS011;11179;52.106;21.024;2023-04-25T12:57:32;11.90;;;5.30;;
22030;SDS011;11179;52.106;21.024;2023-04-25T12:59:57;9.10;;;5.20;;
22030;SDS011;11179;52.106;21.024;2023-04-25T13:02:23;9.23;;;5.13;;
22030;SDS011;11179;52.106;21.024;2023-04-25T13:04:48;11.30;;;4.90;;
22030;SDS011;11179;52.106;21.024;2023-04-25T13:07:13;9.10;;;5.33;;
22030;SDS011;11179;52.106;21.024;2023-04-25T13:09:38;8.43;;;5.60;;
22030;SDS011;11179;52.106;21.024;2023-04-25T13:12:04;8.70;;;5.80;;
22030;SDS011;11179;52.106;21.024;2023-04-25T13:14:30;10.00;;;5.50;;
22030;SDS011;11179;52.106;21.024;2023-04-25T13:16:55;14.90;;;5.10;;
22030;SDS011;11179;52.106;21.024;2023-04-25T13:19:21;11.50;;;5.40;;
22030;SDS011;11179;52.106;21.024;2023-04-25T13:21:46;9.50;;;5.60;;
22030;SDS011;11179;52.106;21.024;2023-04-25T13:24:12;9.27;;;5.50;;
22030;SDS011;11179;52.106;21.024;2023-04-25T13:26:37;14.23;;;5.67;;
22030;SDS011;11179;52.106;21.024;2023-04-25T13:29:02;8.63;;;5.03;;
22030;SDS011;11179;52.106;21.024;2023-04-25T13:31:28;8.87;;;5.60;;
22030;SDS011;11179;52.106;21.024;2023-04-25T13:33:54;9.03;;;5.70;;
22030;SDS011;11179;52.106;21.024;2023-04-25T13:36:20;7.30;;;4.73;;
22030;SDS011;11179;52.106;21.024;2023-04-25T13:38:45;12.20;;;6.70;;
22030;SDS011;11179;52.106;21.024;2023-04-25T13:41:12;9.97;;;5.80;;
22030;SDS011;11179;52.106;21.024;2023-04-25T13:43:42;11.00;;;6.00;;
22030;SDS011;11179;52.106;21.024;2023-04-25T13:46:08;16.90;;;6.83;;
22030;SDS011;11179;52.106;21.024;2023-04-25T13:48:36;10.93;;;6.60;;
22030;SDS011;11179;52.106;21.024;2023-04-25T13:51:02;9.07;;;6.57;;
22030;SDS011;11179;52.106;21.024;2023-04-25T13:53:27;11.20;;;7.27;;
22030;SDS011;11179;52.106;21.024;2023-04-25T13:55:52;11.70;;;7.17;;
22030;SDS011;11179;52.106;21.024;2023-04-25T13:58:18;10.43;;;7.00;;
22030;SDS011;11179;52.106;21.024;2023-04-25T14:00:45;12.97;;;7.60;;
22030;SDS011;11179;52.106;21.024;2023-04-25T14:03:11;11.63;;;6.70;;
22030;SDS011;11179;52.106;21.024;2023-04-25T14:05:37;10.83;;;6.83;;
22030;SDS011;11179;52.106;21.024;2023-04-25T14:08:03;13.63;;;7.40;;
22030;SDS011;11179;52.106;21.024;2023-04-25T14:10:32;11.13;;;7.40;;
22030;SDS011;11179;52.106;21.024;2023-04-25T14:12:58;12.10;;;7.90;;
22030;SDS011;11179;52.106;21.024;2023-04-25T14:15:24;10.97;;;7.13;;
22030;SDS011;11179;52.106;21.024;2023-04-25T14:17:49;12.80;;;7.40;;
22030;SDS011;11179;52.106;21.024;2023-04-25T14:20:14;12.07;;;8.10;;
22030;SDS011;11179;52.106;21.024;2023-04-25T14:22:40;13.40;;;7.47;;
22030;SDS011;11179;52.106;21.024;2023-04-25T14:25:08;13.17;;;8.30;;
22030;SDS011;11179;52.106;21.024;2023-04-25T14:27:34;12.40;;;7.53;;
22030;SDS011;11179;52.106;21.024;2023-04-25T14:30:05;14.23;;;7.83;;
22030;SDS011;11179;52.106;21.024;2023-04-25T14:32:31;11.53;;;7.00;;